Time;durP1;ratioP1;P1;durP2;ratioP2;P2;SDS_P1;SDS_P2;PMS_P1;PMS_P2;Temp;Humidity;BMP_temperature;BMP_pressure;BME280_temperature;BME280_humidity;BME280_pressure;Samples;Min_cycle;Max_cycle;Signal;HPM_P1;HPM_P2
2023/07/04 00:01:11;;;;;;;7.90;2.17;;;;;;;;;;4989560;27;96557;-81
2023/07/04 00:03:39;;;;;;;7.22;2.20;;;;;;;;;;4984125;28;94431;-80
2023/07/04 00:06:06;;;;;;;8.98;2.30;;;;;;;;;;4991506;28;92390;-80
2023/07/04 00:08:33;;;;;;;9.10;1.90;;;;;;;;;;4994104;28;92425;-80
2023/07/04 00:11:01;;;;;;;9.15;2.00;;;;;;;;;;4995150;28;93397;-80
2023/07/04 00:13:28;;;;;;;9.15;2.10;;;;;;;;;;4995049;27;92683;-80
2023/07/04 00:15:55;;;;;;;8.07;2.08;;;;;;;;;;4996126;28;92382;-80
2023/07/04 00:18:23;;;;;;;10.10;2.20;;;;;;;;;;4996857;27;92386;-80
2023/07/04 00:20:58;;;;;;;6.45;1.65;;;;;;;;;;4996503;27;92909;-80
2023/07/04 00:23:27;;;;;;;6.45;1.60;;;;;;;;;;4996751;28;95446;-79
2023/07/04 00:25:54;;;;;;;8.90;2.10;;;;;;;;;;5001811;28;93168;-81
2023/07/04 00:28:22;;;;;;;6.07;1.83;;;;;;;;;;5003236;28;92768;-80
2023/07/04 00:30:52;;;;;;;6.32;1.60;;;;;;;;;;4998348;28;92386;-80
2023/07/04 00:33:24;;;;;;;7.28;2.00;;;;;;;;;;5003459;28;93189;-80
2023/07/04 00:35:57;;;;;;;7.88;2.00;;;;;;;;;;4996989;28;98917;-81
2023/07/04 00:38:24;;;;;;;7.13;1.98;;;;;;;;;;4994808;28;92589;-81
2023/07/04 00:40:51;;;;;;;8.40;2.08;;;;;;;;;;4993770;27;92643;-80
2023/07/04 00:43:18;;;;;;;4.72;1.55;;;;;;;;;;4994655;28;95159;-80
2023/07/04 00:45:48;;;;;;;5.88;1.77;;;;;;;;;;4981223;28;93170;-80
2023/07/04 00:48:15;;;;;;;6.40;1.80;;;;;;;;;;4993485;28;95016;-80
2023/07/04 00:50:43;;;;;;;7.50;2.10;;;;;;;;;;4987534;28;94485;-81
2023/07/04 00:53:11;;;;;;;8.88;2.05;;;;;;;;;;4987753;28;94343;-80
2023/07/04 00:55:39;;;;;;;8.93;2.00;;;;;;;;;;4988355;27;93795;-81
2023/07/04 00:58:06;;;;;;;7.60;1.67;;;;;;;;;;4990853;28;93402;-81
2023/07/04 01:00:33;;;;;;;8.38;1.90;;;;;;;;;;4989431;27;92609;-80
2023/07/04 01:03:04;;;;;;;7.88;1.65;;;;;;;;;;4987237;28;93019;-80
2023/07/04 01:05:40;;;;;;;7.32;1.98;;;;;;;;;;4991580;27;91835;-79
2023/07/04 01:08:26;;;;;;;4.93;1.50;;;;;;;;;;4971274;28;93022;-81
2023/07/04 01:10:53;;;;;;;8.45;2.08;;;;;;;;;;4984978;28;93079;-81
2023/07/04 01:13:27;;;;;;;8.43;1.88;;;;;;;;;;4990723;28;95424;-80
2023/07/04 01:15:54;;;;;;;5.93;1.58;;;;;;;;;;4975980;28;99601;-80
2023/07/04 01:18:23;;;;;;;7.40;1.73;;;;;;;;;;4985115;27;93381;-80
2023/07/04 01:20:50;;;;;;;7.65;1.60;;;;;;;;;;4977289;28;92823;-82
2023/07/04 01:23:17;;;;;;;;;;;;;;;;;;4990446;28;94472;-81
2023/07/04 01:25:55;;;;;;;4.47;1.42;;;;;;;;;;4989677;28;108961;-81
2023/07/04 01:28:23;;;;;;;6.47;1.50;;;;;;;;;;4984950;27;92596;-82
2023/07/04 01:30:51;;;;;;;7.45;1.77;;;;;;;;;;4987129;27;93008;-82
2023/07/04 01:33:20;;;;;;;5.40;1.52;;;;;;;;;;4985511;28;92473;-82
2023/07/04 01:35:47;;;;;;;6.38;1.55;;;;;;;;;;4961658;28;92739;-82
2023/07/04 01:38:14;;;;;;;7.35;1.92;;;;;;;;;;4970102;28;95120;-82
2023/07/04 01:40:40;;;;;;;5.68;1.50;;;;;;;;;;4964139;28;92411;-81
2023/07/04 01:43:07;;;;;;;6.15;1.40;;;;;;;;;;4974629;28;92713;-82
2023/07/04 01:45:35;;;;;;;11.70;1.77;;;;;;;;;;4970943;28;92754;-80
2023/07/04 01:48:02;;;;;;;9.15;1.88;;;;;;;;;;4971917;28;92804;-82
2023/07/04 01:50:29;;;;;;;7.90;1.88;;;;;;;;;;4970596;28;96584;-82
2023/07/04 01:52:55;;;;;;;9.02;1.70;;;;;;;;;;4971962;28;92906;-82
2023/07/04 01:55:22;;;;;;;7.28;1.92;;;;;;;;;;4970771;28;96500;-82
2023/07/04 01:57:51;;;;;;;8.38;1.70;;;;;;;;;;4968158;28;97742;-83
2023/07/04 02:00:18;;;;;;;8.45;2.08;;;;;;;;;;4959394;28;92565;-82
2023/07/04 02:02:54;;;;;;;6.85;1.50;;;;;;;;;;4968675;28;95422;-82
2023/07/04 02:05:21;;;;;;;8.85;1.67;;;;;;;;;;4972646;28;95999;-82
2023/07/04 02:07:47;;;;;;;7.80;1.77;;;;;;;;;;4970453;28;93013;-82
2023/07/04 02:10:14;;;;;;;5.90;1.50;;;;;;;;;;4964082;28;93996;-82
2023/07/04 02:12:40;;;;;;;7.43;1.80;;;;;;;;;;4963625;28;92481;-83
2023/07/04 02:15:08;;;;;;;7.32;1.50;;;;;;;;;;4986580;28;93024;-83
2023/07/04 02:17:35;;;;;;;6.30;1.98;;;;;;;;;;4979609;28;95717;-83
2023/07/04 02:20:03;;;;;;;6.63;1.70;;;;;;;;;;4989332;27;91912;-83
2023/07/04 02:22:30;;;;;;;7.30;1.90;;;;;;;;;;4980713;28;92937;-83
2023/07/04 02:24:57;;;;;;;6.68;1.70;;;;;;;;;;4983427;28;93172;-85
2023/07/04 02:27:25;;;;;;;5.82;1.70;;;;;;;;;;4988436;27;95846;-84
2023/07/04 02:29:51;;;;;;;7.72;1.73;;;;;;;;;;4989992;28;94339;-85
2023/07/04 02:32:18;;;;;;;8.30;2.17;;;;;;;;;;4992340;27;92989;-84
2023/07/04 02:34:44;;;;;;;7.97;1.55;;;;;;;;;;4989601;28;95262;-84
2023/07/04 02:37:14;;;;;;;6.40;1.90;;;;;;;;;;4966704;28;96267;-84
2023/07/04 02:39:40;;;;;;;6.97;1.70;;;;;;;;;;4990910;27;92768;-84
2023/07/04 02:42:07;;;;;;;6.03;1.52;;;;;;;;;;4973115;28;95552;-84
2023/07/04 02:44:35;;;;;;;6.07;1.52;;;;;;;;;;4989897;28;95286;-84
2023/07/04 02:47:04;;;;;;;5.05;1.70;;;;;;;;;;4993167;28;92537;-84
2023/07/04 02:49:35;;;;;;;6.70;1.95;;;;;;;;;;4988152;27;94449;-82
2023/07/04 02:52:02;;;;;;;3.58;1.30;;;;;;;;;;4987948;28;98325;-83
2023/07/04 02:54:29;;;;;;;6.65;1.48;;;;;;;;;;4976473;28;98023;-84
2023/07/04 02:56:55;;;;;;;7.68;1.80;;;;;;;;;;4990915;28;94166;-83
2023/07/04 02:59:22;;;;;;;6.63;1.60;;;;;;;;;;4989265;28;92507;-82
2023/07/04 03:01:51;;;;;;;6.75;1.65;;;;;;;;;;4990628;28;97704;-81
2023/07/04 03:04:19;;;;;;;9.88;1.67;;;;;;;;;;4987741;28;95176;-84
2023/07/04 03:06:47;;;;;;;6.22;1.80;;;;;;;;;;4972651;28;92588;-82
2023/07/04 03:09:14;;;;;;;11.30;1.60;;;;;;;;;;4992521;28;95930;-83
2023/07/04 03:11:40;;;;;;;4.93;1.52;;;;;;;;;;4990876;28;92464;-84
2023/07/04 03:14:08;;;;;;;6.38;1.55;;;;;;;;;;4989617;28;95659;-85
2023/07/04 03:16:34;;;;;;;6.22;1.63;;;;;;;;;;4975733;28;95017;-83
2023/07/04 03:19:02;;;;;;;7.82;1.70;;;;;;;;;;4982284;28;92964;-82
2023/07/04 03:21:29;;;;;;;;;;;;;;;;;;4988220;28;95805;-81
2023/07/04 03:23:56;;;;;;;6.85;1.38;;;;;;;;;;4991436;28;95735;-83
2023/07/04 03:26:23;;;;;;;5.97;1.83;;;;;;;;;;4993177;28;92393;-83
2023/07/04 03:28:50;;;;;;;;;;;;;;;;;;4965437;28;95226;-82
2023/07/04 03:31:17;;;;;;;7.45;1.70;;;;;;;;;;4994570;28;109383;-84
2023/07/04 03:33:46;;;;;;;5.97;1.73;;;;;;;;;;4988728;28;95765;-84
2023/07/04 03:36:14;;;;;;;4.20;1.40;;;;;;;;;;4980897;28;93011;-83
2023/07/04 03:38:41;;;;;;;5.70;1.55;;;;;;;;;;4984661;28;92438;-83
2023/07/04 03:41:07;;;;;;;6.05;1.52;;;;;;;;;;4987446;28;95738;-82
2023/07/04 03:43:34;;;;;;;7.63;1.70;;;;;;;;;;4988304;28;94123;-82
2023/07/04 03:46:01;;;;;;;5.97;1.40;;;;;;;;;;4990431;28;92665;-83
2023/07/04 03:48:27;;;;;;;7.07;1.70;;;;;;;;;;4982166;28;94631;-83
2023/07/04 03:50:54;;;;;;;4.65;1.73;;;;;;;;;;4989554;28;93076;-83
2023/07/04 03:53:21;;;;;;;6.85;1.92;;;;;;;;;;4992790;27;92493;-84
2023/07/04 03:55:48;;;;;;;5.00;1.33;;;;;;;;;;4984820;28;96113;-82
2023/07/04 03:58:17;;;;;;;6.88;1.70;;;;;;;;;;4963869;28;91928;-83
2023/07/04 04:00:47;;;;;;;6.15;1.48;;;;;;;;;;4972729;28;93468;-83
2023/07/04 04:03:14;;;;;;;4.82;1.77;;;;;;;;;;4987180;28;94346;-83
2023/07/04 04:05:41;;;;;;;5.50;1.73;;;;;;;;;;4973100;28;95383;-83
2023/07/04 04:08:08;;;;;;;5.80;1.30;;;;;;;;;;4988981;27;95269;-83
2023/07/04 04:10:35;;;;;;;7.00;1.52;;;;;;;;;;4989742;27;93661;-84
2023/07/04 04:13:01;;;;;;;4.35;1.50;;;;;;;;;;4989955;27;92560;-83
2023/07/04 04:15:28;;;;;;;4.35;1.48;;;;;;;;;;4991816;27;93219;-82
2023/07/04 04:17:55;;;;;;;6.55;1.67;;;;;;;;;;4988963;27;92653;-83
2023/07/04 04:20:22;;;;;;;5.00;1.48;;;;;;;;;;4989225;28;93199;-83
2023/07/04 04:22:49;;;;;;;5.03;1.50;;;;;;;;;;4989654;28;92406;-82
2023/07/04 04:25:16;;;;;;;7.22;1.58;;;;;;;;;;4987535;28;92547;-83
2023/07/04 04:27:46;;;;;;;6.10;1.40;;;;;;;;;;4988164;28;93798;-82
2023/07/04 04:30:13;;;;;;;6.18;1.60;;;;;;;;;;4986375;27;95436;-82
2023/07/04 04:32:40;;;;;;;6.70;1.73;;;;;;;;;;4987572;28;92927;-83
2023/07/04 04:35:08;;;;;;;;;;;;;;;;;;4990205;28;94831;-83
2023/07/04 04:37:34;;;;;;;7.53;1.90;;;;;;;;;;4989583;27;92569;-82
2023/07/04 04:40:01;;;;;;;5.82;1.50;;;;;;;;;;4991087;28;93219;-83
2023/07/04 04:42:28;;;;;;;4.97;1.60;;;;;;;;;;4990744;28;93032;-83
2023/07/04 04:44:54;;;;;;;5.18;1.48;;;;;;;;;;4973406;28;92829;-83
2023/07/04 04:47:23;;;;;;;7.00;1.70;;;;;;;;;;4991503;28;92781;-83
2023/07/04 04:49:50;;;;;;;7.93;1.88;;;;;;;;;;4992079;27;98097;-83
2023/07/04 04:52:21;;;;;;;5.40;1.67;;;;;;;;;;4991138;28;92610;-83
2023/07/04 04:54:48;;;;;;;6.85;1.52;;;;;;;;;;4988721;28;95734;-83
2023/07/04 04:57:15;;;;;;;4.40;1.50;;;;;;;;;;4989802;27;92983;-83
2023/07/04 04:59:42;;;;;;;;;;;;;;;;;;4990322;28;92584;-84
2023/07/04 05:02:12;;;;;;;7.45;1.73;;;;;;;;;;4994071;28;98799;-84
2023/07/04 05:04:39;;;;;;;3.90;1.35;;;;;;;;;;4992952;28;92692;-82
2023/07/04 05:07:05;;;;;;;5.05;1.52;;;;;;;;;;4993525;27;92765;-83
2023/07/04 05:09:32;;;;;;;6.90;1.60;;;;;;;;;;4990967;27;92798;-83
2023/07/04 05:11:59;;;;;;;6.43;1.70;;;;;;;;;;4973731;28;91813;-83
2023/07/04 05:14:27;;;;;;;5.93;1.83;;;;;;;;;;4990304;28;93578;-82
2023/07/04 05:16:54;;;;;;;6.82;1.50;;;;;;;;;;4992940;28;93096;-84
2023/07/04 05:19:21;;;;;;;6.30;1.77;;;;;;;;;;4993786;28;95085;-84
2023/07/04 05:21:48;;;;;;;6.68;1.40;;;;;;;;;;4990748;27;94281;-83
2023/07/04 05:24:15;;;;;;;8.00;1.73;;;;;;;;;;4991888;28;92558;-82
2023/07/04 05:26:41;;;;;;;5.68;1.65;;;;;;;;;;4991712;27;92857;-83
2023/07/04 05:29:08;;;;;;;6.45;1.60;;;;;;;;;;4990861;28;93016;-82
2023/07/04 05:31:35;;;;;;;4.80;1.65;;;;;;;;;;4990368;27;92558;-82
2023/07/04 05:34:02;;;;;;;6.22;1.48;;;;;;;;;;4991628;28;92951;-82
2023/07/04 05:36:30;;;;;;;5.50;1.52;;;;;;;;;;4992097;27;92912;-82
2023/07/04 05:38:59;;;;;;;3.95;1.30;;;;;;;;;;4986936;28;92704;-82
2023/07/04 05:41:27;;;;;;;8.07;1.95;;;;;;;;;;4984578;27;92819;-82
2023/07/04 05:43:55;;;;;;;5.45;1.50;;;;;;;;;;4989331;27;95212;-80
2023/07/04 05:46:22;;;;;;;5.18;1.50;;;;;;;;;;4990733;27;95035;-81
2023/07/04 05:48:48;;;;;;;8.55;2.15;;;;;;;;;;4990690;28;93030;-80
2023/07/04 05:51:16;;;;;;;5.60;1.85;;;;;;;;;;4989531;27;92631;-81
2023/07/04 05:53:43;;;;;;;6.95;1.60;;;;;;;;;;4981549;28;93700;-80
2023/07/04 05:56:24;;;;;;;5.45;1.60;;;;;;;;;;4976913;28;93167;-81
2023/07/04 05:59:01;;;;;;;7.90;1.70;;;;;;;;;;4990486;27;92483;-82
2023/07/04 06:01:29;;;;;;;7.63;1.88;;;;;;;;;;4990389;27;92914;-81
2023/07/04 06:03:56;;;;;;;6.80;1.63;;;;;;;;;;4992899;28;92917;-81
2023/07/04 06:06:24;;;;;;;8.20;1.80;;;;;;;;;;4989036;28;92626;-81
2023/07/04 06:08:52;;;;;;;6.05;1.98;;;;;;;;;;4984405;27;95646;-82
2023/07/04 06:11:19;;;;;;;9.70;2.33;;;;;;;;;;4990965;27;92686;-82
2023/07/04 06:13:46;;;;;;;9.35;2.17;;;;;;;;;;4989965;28;92940;-83
2023/07/04 06:16:13;;;;;;;12.63;2.10;;;;;;;;;;4992225;28;93386;-85
2023/07/04 06:18:40;;;;;;;9.57;2.20;;;;;;;;;;4990694;28;93122;-84
2023/07/04 06:21:07;;;;;;;13.00;2.80;;;;;;;;;;4989686;27;92610;-84
2023/07/04 06:23:34;;;;;;;8.80;2.20;;;;;;;;;;4989809;27;93062;-83
2023/07/04 06:26:00;;;;;;;8.63;1.80;;;;;;;;;;4993204;27;91626;-84
2023/07/04 06:28:27;;;;;;;7.65;2.00;;;;;;;;;;4990028;28;93363;-84
2023/07/04 06:30:54;;;;;;;12.15;2.40;;;;;;;;;;4989536;28;92561;-84
2023/07/04 06:33:20;;;;;;;7.32;1.90;;;;;;;;;;4988958;28;95373;-82
2023/07/04 06:35:47;;;;;;;11.50;2.25;;;;;;;;;;4982639;28;93006;-80
2023/07/04 06:38:13;;;;;;;10.25;2.40;;;;;;;;;;4984864;27;93665;-81
2023/07/04 06:40:40;;;;;;;8.38;2.13;;;;;;;;;;4990224;28;93500;-79
2023/07/04 06:43:07;;;;;;;8.52;2.10;;;;;;;;;;4989823;27;92511;-81
2023/07/04 06:45:35;;;;;;;10.95;2.75;;;;;;;;;;4993120;27;92450;-80
2023/07/04 06:48:02;;;;;;;9.13;2.13;;;;;;;;;;4989617;27;92987;-80
2023/07/04 06:50:28;;;;;;;10.45;2.25;;;;;;;;;;4977146;28;92052;-80
2023/07/04 06:52:55;;;;;;;;;;;;;;;;;;4984012;27;93230;-80
2023/07/04 06:55:22;;;;;;;8.40;2.10;;;;;;;;;;4977923;28;98792;-79
2023/07/04 06:57:48;;;;;;;8.43;2.00;;;;;;;;;;4983356;27;95046;-78
2023/07/04 07:00:16;;;;;;;8.70;1.90;;;;;;;;;;4982024;28;93957;-80
2023/07/04 07:02:42;;;;;;;8.45;2.35;;;;;;;;;;4988990;28;93058;-78
2023/07/04 07:05:09;;;;;;;9.75;2.10;;;;;;;;;;4988117;27;94343;-78
2023/07/04 07:07:35;;;;;;;8.23;1.70;;;;;;;;;;4982426;28;92785;-79
2023/07/04 07:10:03;;;;;;;7.90;1.80;;;;;;;;;;4983526;28;92702;-79
2023/07/04 07:12:31;;;;;;;7.45;1.90;;;;;;;;;;4969878;28;92881;-80
2023/07/04 07:14:58;;;;;;;8.48;2.28;;;;;;;;;;4979957;28;92485;-79
2023/07/04 07:17:24;;;;;;;8.48;2.33;;;;;;;;;;4986938;27;92913;-79
2023/07/04 07:19:52;;;;;;;7.38;1.80;;;;;;;;;;4981853;28;95677;-79
2023/07/04 07:22:21;;;;;;;9.73;2.28;;;;;;;;;;4974979;28;95969;-78
2023/07/04 07:24:48;;;;;;;9.40;1.92;;;;;;;;;;4978792;28;93472;-79
2023/07/04 07:27:15;;;;;;;8.32;2.05;;;;;;;;;;4982635;28;92770;-79
2023/07/04 07:29:41;;;;;;;11.80;2.33;;;;;;;;;;4990476;28;93649;-79
2023/07/04 07:32:08;;;;;;;12.60;2.63;;;;;;;;;;4979065;28;92801;-78
2023/07/04 07:34:34;;;;;;;8.10;2.10;;;;;;;;;;4987343;28;93085;-79
2023/07/04 07:37:02;;;;;;;11.13;2.17;;;;;;;;;;4974571;28;92437;-78
2023/07/04 07:39:29;;;;;;;;;;;;;;;;;;4982910;28;92698;-79
2023/07/04 07:41:55;;;;;;;7.75;1.83;;;;;;;;;;4990813;27;93729;-79
2023/07/04 07:44:22;;;;;;;13.75;2.60;;;;;;;;;;4984996;27;92520;-79
2023/07/04 07:46:48;;;;;;;10.68;2.60;;;;;;;;;;4976319;28;95014;-79
2023/07/04 07:49:15;;;;;;;9.63;2.60;;;;;;;;;;4984280;28;93725;-79
2023/07/04 07:51:41;;;;;;;12.52;2.60;;;;;;;;;;4989007;28;94011;-79
2023/07/04 07:54:08;;;;;;;14.10;2.60;;;;;;;;;;4987484;27;93376;-79
2023/07/04 07:56:41;;;;;;;9.57;2.13;;;;;;;;;;4988134;28;92842;-79
2023/07/04 07:59:07;;;;;;;12.18;2.67;;;;;;;;;;4988323;28;92770;-78
2023/07/04 08:01:34;;;;;;;11.40;2.72;;;;;;;;;;4988772;27;92991;-79
2023/07/04 08:04:01;;;;;;;12.13;2.35;;;;;;;;;;4987833;28;92426;-79
2023/07/04 08:06:28;;;;;;;;;;;;;;;;;;4990054;27;92409;-78
2023/07/04 08:08:55;;;;;;;9.73;1.92;;;;;;;;;;5023624;27;115332;-78
2023/07/04 08:11:22;;;;;;;;;;;;;;;;;;4989621;28;94831;-78
2023/07/04 08:13:48;;;;;;;11.95;2.13;;;;;;;;;;4992920;27;121158;-78
2023/07/04 08:16:17;;;;;;;11.13;2.20;;;;;;;;;;4991720;28;92548;-78
2023/07/04 08:18:43;;;;;;;10.18;2.13;;;;;;;;;;4979076;28;92866;-79
2023/07/04 08:21:11;;;;;;;11.52;2.10;;;;;;;;;;4981201;28;93258;-79
2023/07/04 08:23:38;;;;;;;9.50;2.00;;;;;;;;;;4996129;27;92460;-78
2023/07/04 08:26:04;;;;;;;10.98;2.15;;;;;;;;;;5000145;28;92740;-79
2023/07/04 08:28:31;;;;;;;12.45;2.42;;;;;;;;;;4997601;27;92339;-79
2023/07/04 08:31:02;;;;;;;10.25;1.92;;;;;;;;;;4993537;28;93159;-79
2023/07/04 08:33:29;;;;;;;7.53;1.75;;;;;;;;;;4984191;28;92616;-79
2023/07/04 08:35:57;;;;;;;12.18;2.13;;;;;;;;;;4997634;28;94865;-79
2023/07/04 08:38:24;;;;;;;11.10;2.20;;;;;;;;;;4981511;28;94170;-79
2023/07/04 08:40:51;;;;;;;10.20;2.15;;;;;;;;;;4990187;28;93048;-79
2023/07/04 08:43:17;;;;;;;;;;;;;;;;;;4989622;27;92597;-78
2023/07/04 08:45:44;;;;;;;9.40;1.80;;;;;;;;;;4986575;28;116315;-78
2023/07/04 08:48:16;;;;;;;9.40;1.92;;;;;;;;;;4994771;28;93097;-78
2023/07/04 08:50:44;;;;;;;9.63;1.80;;;;;;;;;;4988100;28;94795;-79
2023/07/04 08:53:17;;;;;;;10.93;2.15;;;;;;;;;;4983247;28;92604;-79
2023/07/04 08:55:54;;;;;;;10.60;2.28;;;;;;;;;;4988926;27;93079;-79
2023/07/04 08:58:25;;;;;;;11.23;2.33;;;;;;;;;;4981381;28;92982;-79
2023/07/04 09:00:51;;;;;;;9.75;2.25;;;;;;;;;;4986111;28;95635;-79
2023/07/04 09:03:42;;;;;;;11.27;2.35;;;;;;;;;;4987674;28;92458;-79
2023/07/04 09:06:27;;;;;;;10.27;1.75;;;;;;;;;;4985573;28;97455;-79
2023/07/04 09:09:07;;;;;;;7.82;2.05;;;;;;;;;;4986675;28;93081;-79
2023/07/04 09:11:34;;;;;;;9.90;1.92;;;;;;;;;;4976858;28;93109;-80
2023/07/04 09:14:16;;;;;;;10.13;2.20;;;;;;;;;;4987493;28;92917;-79
2023/07/04 09:16:45;;;;;;;10.10;2.20;;;;;;;;;;4984112;28;93449;-80
2023/07/04 09:19:15;;;;;;;12.25;2.40;;;;;;;;;;4990551;27;91744;-79
2023/07/04 09:21:42;;;;;;;9.57;2.08;;;;;;;;;;4986359;28;93719;-79
2023/07/04 09:24:09;;;;;;;9.55;2.13;;;;;;;;;;4984467;28;92945;-79
2023/07/04 09:26:39;;;;;;;8.25;1.90;;;;;;;;;;4985337;28;94973;-80
2023/07/04 09:29:06;;;;;;;10.98;2.50;;;;;;;;;;4990271;27;92473;-79
2023/07/04 09:31:37;;;;;;;9.38;2.28;;;;;;;;;;4990114;28;93503;-79
2023/07/04 09:34:07;;;;;;;10.52;2.17;;;;;;;;;;4987323;28;92669;-79
2023/07/04 09:36:37;;;;;;;8.52;1.95;;;;;;;;;;4991014;28;92909;-80
2023/07/04 09:39:04;;;;;;;11.77;2.22;;;;;;;;;;4987332;27;92719;-78
2023/07/04 09:41:35;;;;;;;11.93;2.10;;;;;;;;;;4987986;27;93263;-78
2023/07/04 09:44:28;;;;;;;10.20;2.42;;;;;;;;;;4991086;28;91817;-79
2023/07/04 09:46:56;;;;;;;10.70;2.20;;;;;;;;;;4990996;27;93302;-78
2023/07/04 09:49:28;;;;;;;11.38;2.10;;;;;;;;;;4989461;28;93085;-78
2023/07/04 09:52:01;;;;;;;8.45;1.98;;;;;;;;;;4987144;28;95724;-79
2023/07/04 09:54:31;;;;;;;11.68;1.90;;;;;;;;;;4980401;28;95060;-79
2023/07/04 09:57:19;;;;;;;8.02;1.80;;;;;;;;;;4989928;28;94229;-79
2023/07/04 09:59:45;;;;;;;11.98;2.22;;;;;;;;;;4989681;27;93024;-78
2023/07/04 10:02:13;;;;;;;;;;;;;;;;;;4990309;27;92920;-78
2023/07/04 10:04:40;;;;;;;9.27;2.10;;;;;;;;;;4992039;28;107798;-79
2023/07/04 10:07:14;;;;;;;9.57;2.17;;;;;;;;;;4986939;28;93858;-79
2023/07/04 10:09:40;;;;;;;;;;;;;;;;;;4989932;28;92780;-79
2023/07/04 10:12:09;;;;;;;6.68;2.00;;;;;;;;;;4991569;27;103080;-79
2023/07/04 10:14:36;;;;;;;8.02;2.00;;;;;;;;;;4990321;28;92782;-80
2023/07/04 10:17:08;;;;;;;9.00;2.10;;;;;;;;;;4988420;28;95802;-79
2023/07/04 10:19:39;;;;;;;9.93;2.38;;;;;;;;;;4987783;28;92538;-79
2023/07/04 10:22:06;;;;;;;11.00;2.25;;;;;;;;;;4988650;28;93673;-79
2023/07/04 10:24:35;;;;;;;7.72;2.03;;;;;;;;;;4989535;28;94102;-79
2023/07/04 10:27:04;;;;;;;9.02;1.92;;;;;;;;;;4994310;28;92555;-80
2023/07/04 10:29:36;;;;;;;9.50;2.03;;;;;;;;;;4987997;28;94434;-78
2023/07/04 10:32:06;;;;;;;7.78;1.95;;;;;;;;;;4989710;28;92480;-79
2023/07/04 10:34:34;;;;;;;9.73;2.00;;;;;;;;;;4984944;28;93319;-79
2023/07/04 10:37:01;;;;;;;7.53;1.55;;;;;;;;;;4981244;28;93047;-79
2023/07/04 10:39:30;;;;;;;6.82;1.90;;;;;;;;;;4988709;27;92933;-79
2023/07/04 10:42:13;;;;;;;9.00;1.92;;;;;;;;;;4987853;28;95402;-79
2023/07/04 10:44:41;;;;;;;9.32;1.98;;;;;;;;;;4988870;28;93957;-78
2023/07/04 10:47:11;;;;;;;7.43;2.10;;;;;;;;;;4992569;28;92680;-78
2023/07/04 10:49:45;;;;;;;8.48;2.00;;;;;;;;;;4989133;27;92963;-79
2023/07/04 10:52:16;;;;;;;6.85;1.90;;;;;;;;;;4970762;28;92445;-79
2023/07/04 10:54:42;;;;;;;9.32;2.10;;;;;;;;;;4989226;28;92628;-78
2023/07/04 10:57:18;;;;;;;9.98;1.95;;;;;;;;;;4973785;28;93019;-78
2023/07/04 10:59:46;;;;;;;7.70;1.92;;;;;;;;;;4969416;28;92144;-78
2023/07/04 11:02:17;;;;;;;10.60;2.10;;;;;;;;;;4985060;27;92937;-78
2023/07/04 11:04:44;;;;;;;6.00;1.98;;;;;;;;;;4978231;28;94134;-78
2023/07/04 11:07:22;;;;;;;6.50;1.67;;;;;;;;;;4999656;28;95667;-79
2023/07/04 11:09:53;;;;;;;8.90;1.90;;;;;;;;;;4983403;27;99964;-78
2023/07/04 11:12:20;;;;;;;7.07;1.73;;;;;;;;;;4989610;28;92752;-78
2023/07/04 11:14:47;;;;;;;9.68;2.20;;;;;;;;;;4987436;28;92816;-79
2023/07/04 11:17:16;;;;;;;6.20;1.55;;;;;;;;;;4989124;27;93129;-79
2023/07/04 11:19:52;;;;;;;8.75;1.85;;;;;;;;;;4987533;27;94837;-79
2023/07/04 11:22:19;;;;;;;7.03;1.73;;;;;;;;;;4987714;28;92969;-79
2023/07/04 11:24:50;;;;;;;8.23;1.90;;;;;;;;;;4982950;28;92404;-79
2023/07/04 11:27:24;;;;;;;7.22;1.77;;;;;;;;;;4988785;28;92415;-79
2023/07/04 11:29:55;;;;;;;6.05;1.50;;;;;;;;;;4986973;28;97635;-80
2023/07/04 11:32:21;;;;;;;6.95;1.90;;;;;;;;;;4974988;28;95470;-79
2023/07/04 11:34:49;;;;;;;6.70;1.60;;;;;;;;;;4988399;27;95303;-79
2023/07/04 11:37:18;;;;;;;6.63;1.63;;;;;;;;;;4988268;27;92404;-80
2023/07/04 11:39:47;;;;;;;6.35;1.48;;;;;;;;;;4987486;27;92808;-79
2023/07/04 11:42:19;;;;;;;6.50;2.05;;;;;;;;;;4988845;27;92801;-79
2023/07/04 11:44:49;;;;;;;7.50;1.80;;;;;;;;;;4988060;28;95020;-79
2023/07/04 11:47:28;;;;;;;7.90;1.67;;;;;;;;;;4986621;27;93175;-79
2023/07/04 11:49:56;;;;;;;5.28;1.50;;;;;;;;;;4979600;28;97364;-79
2023/07/04 11:52:27;;;;;;;5.85;1.77;;;;;;;;;;4981541;28;93065;-79
2023/07/04 11:54:58;;;;;;;7.63;1.70;;;;;;;;;;4990070;28;92796;-79
2023/07/04 11:57:44;;;;;;;6.25;1.67;;;;;;;;;;4986627;27;96031;-79
2023/07/04 12:00:32;;;;;;;6.45;1.60;;;;;;;;;;4987546;27;92449;-79
2023/07/04 12:03:17;;;;;;;7.53;1.90;;;;;;;;;;4988170;27;92866;-79
2023/07/04 12:05:46;;;;;;;9.25;2.00;;;;;;;;;;4986857;28;92882;-79
2023/07/04 12:08:24;;;;;;;6.15;1.80;;;;;;;;;;4998931;28;92413;-79
2023/07/04 12:10:50;;;;;;;8.35;2.08;;;;;;;;;;4974337;28;94986;-79
2023/07/04 12:13:21;;;;;;;8.57;1.90;;;;;;;;;;4995968;28;95888;-78
2023/07/04 12:15:49;;;;;;;7.03;1.98;;;;;;;;;;4987924;28;91776;-79
2023/07/04 12:18:15;;;;;;;;;;;;;;;;;;4991920;28;92416;-79
2023/07/04 12:20:42;;;;;;;9.38;1.73;;;;;;;;;;4989297;28;102645;-78
2023/07/04 12:23:10;;;;;;;6.75;1.50;;;;;;;;;;4974255;28;96348;-78
2023/07/04 12:25:41;;;;;;;6.03;1.80;;;;;;;;;;4987053;28;93080;-78
2023/07/04 12:28:11;;;;;;;7.75;2.10;;;;;;;;;;4976578;28;92474;-78
2023/07/04 12:30:38;;;;;;;5.95;1.70;;;;;;;;;;4980012;27;93223;-79
2023/07/04 12:33:06;;;;;;;5.50;1.55;;;;;;;;;;4983807;28;93233;-78
2023/07/04 12:35:35;;;;;;;5.03;1.60;;;;;;;;;;4979033;28;92505;-78
2023/07/04 12:38:02;;;;;;;7.47;1.70;;;;;;;;;;4984468;27;92803;-79
2023/07/04 12:40:30;;;;;;;6.97;1.52;;;;;;;;;;4981609;28;92648;-79
2023/07/04 12:43:00;;;;;;;6.13;1.60;;;;;;;;;;4985182;28;93071;-79
2023/07/04 12:45:29;;;;;;;6.82;1.50;;;;;;;;;;4989223;28;93101;-78
2023/07/04 12:47:59;;;;;;;6.43;1.50;;;;;;;;;;4990777;27;95008;-78
2023/07/04 12:50:30;;;;;;;5.80;1.60;;;;;;;;;;4989716;27;95353;-79
2023/07/04 12:52:58;;;;;;;7.85;1.80;;;;;;;;;;4987105;28;93584;-79
2023/07/04 12:55:32;;;;;;;6.38;1.60;;;;;;;;;;4984328;27;93350;-78
2023/07/04 12:58:00;;;;;;;5.55;1.70;;;;;;;;;;4982986;27;92810;-78
2023/07/04 13:00:34;;;;;;;6.25;1.50;;;;;;;;;;4987534;28;93652;-78
2023/07/04 13:03:08;;;;;;;4.72;1.50;;;;;;;;;;4987620;28;93618;-78
2023/07/04 13:05:38;;;;;;;6.90;1.77;;;;;;;;;;4989288;28;93532;-78
2023/07/04 13:08:08;;;;;;;5.65;1.60;;;;;;;;;;4995848;27;92763;-78
2023/07/04 13:10:36;;;;;;;7.72;1.50;;;;;;;;;;4993507;27;92818;-78
2023/07/04 13:13:03;;;;;;;5.90;1.60;;;;;;;;;;4984877;28;96240;-78
2023/07/04 13:15:35;;;;;;;4.72;1.33;;;;;;;;;;4994797;28;92798;-78
2023/07/04 13:18:05;;;;;;;5.75;1.60;;;;;;;;;;4997319;28;93029;-77
2023/07/04 13:20:33;;;;;;;5.82;1.55;;;;;;;;;;4996600;27;93243;-77
2023/07/04 13:23:19;;;;;;;8.23;1.75;;;;;;;;;;4990121;28;93629;-78
2023/07/04 13:25:50;;;;;;;3.67;1.50;;;;;;;;;;4994250;28;99253;-78
2023/07/04 13:28:28;;;;;;;5.03;1.60;;;;;;;;;;4994540;27;92554;-79
2023/07/04 13:31:17;;;;;;;5.63;1.60;;;;;;;;;;4997156;28;93998;-78
2023/07/04 13:33:48;;;;;;;7.63;1.50;;;;;;;;;;4988787;27;93356;-78
2023/07/04 13:36:17;;;;;;;4.72;1.60;;;;;;;;;;5001692;28;93139;-79
2023/07/04 13:38:44;;;;;;;7.10;1.40;;;;;;;;;;4989495;28;94904;-79
2023/07/04 13:41:16;;;;;;;4.55;1.50;;;;;;;;;;4997450;28;93203;-78
2023/07/04 13:43:42;;;;;;;6.47;1.50;;;;;;;;;;4988841;28;93457;-78
2023/07/04 13:46:12;;;;;;;5.40;1.40;;;;;;;;;;5001983;28;93504;-78
2023/07/04 13:48:38;;;;;;;4.97;1.40;;;;;;;;;;4991225;28;92670;-78
2023/07/04 13:51:05;;;;;;;9.90;1.70;;;;;;;;;;4990164;28;93367;-79
2023/07/04 13:53:32;;;;;;;7.53;1.40;;;;;;;;;;4982512;27;93586;-80
2023/07/04 13:55:59;;;;;;;5.15;1.70;;;;;;;;;;4977952;28;91938;-78
2023/07/04 13:58:27;;;;;;;4.30;1.60;;;;;;;;;;4976332;28;92676;-78
2023/07/04 14:00:54;;;;;;;5.80;1.98;;;;;;;;;;4978619;28;93281;-79
2023/07/04 14:03:26;;;;;;;5.30;1.58;;;;;;;;;;4984703;27;96816;-78
2023/07/04 14:05:56;;;;;;;5.70;1.60;;;;;;;;;;4984011;28;97953;-79
2023/07/04 14:08:25;;;;;;;8.10;1.80;;;;;;;;;;4987844;28;93659;-79
2023/07/04 14:11:19;;;;;;;6.30;1.70;;;;;;;;;;4986365;28;92837;-79
2023/07/04 14:13:45;;;;;;;3.85;1.20;;;;;;;;;;4982775;27;93022;-78
2023/07/04 14:16:13;;;;;;;5.35;1.40;;;;;;;;;;4987342;27;92688;-78
2023/07/04 14:18:43;;;;;;;6.05;1.60;;;;;;;;;;4983934;28;95335;-80
2023/07/04 14:21:13;;;;;;;7.32;1.52;;;;;;;;;;4982067;28;95598;-80
2023/07/04 14:23:40;;;;;;;5.07;1.60;;;;;;;;;;4980062;28;92431;-80
2023/07/04 14:26:17;;;;;;;5.43;1.75;;;;;;;;;;4985604;27;92804;-79
2023/07/04 14:28:48;;;;;;;3.30;1.35;;;;;;;;;;4980986;28;95568;-78
2023/07/04 14:31:15;;;;;;;4.07;1.40;;;;;;;;;;4964234;28;92734;-79
2023/07/04 14:33:42;;;;;;;5.05;1.60;;;;;;;;;;4983473;27;93075;-79
2023/07/04 14:36:08;;;;;;;5.18;1.63;;;;;;;;;;4979740;27;92825;-78
2023/07/04 14:38:35;;;;;;;4.45;1.60;;;;;;;;;;4978038;28;92951;-79
2023/07/04 14:41:03;;;;;;;3.95;1.67;;;;;;;;;;4980067;27;93298;-79
2023/07/04 14:43:32;;;;;;;4.88;1.75;;;;;;;;;;4973665;28;92561;-79
2023/07/04 14:46:00;;;;;;;5.57;1.58;;;;;;;;;;4984271;28;92695;-79
2023/07/04 14:48:26;;;;;;;4.43;1.70;;;;;;;;;;4975302;28;93157;-79
2023/07/04 14:51:04;;;;;;;4.07;1.80;;;;;;;;;;4978467;27;93197;-78
2023/07/04 14:53:31;;;;;;;5.15;1.80;;;;;;;;;;4988227;27;94860;-78
2023/07/04 14:56:01;;;;;;;3.63;1.60;;;;;;;;;;4985514;28;92785;-79